This is the latest recevied weather packets stored in our database for station/object OK6DJ-6. If no packets are shown the sender has not sent any weather packets the latest 1 day(s).
| Time | Temp. | Humidity | Pressure | Rain* | Wind** | Luminosity | Snow |
|---|---|---|---|---|---|---|---|
| 1788516676 | 25.56° C | 54% | 1016.9 hPa | 0 mm | 0.45 m/s, 0° | - | - |
| 1788516076 | 26.67° C | 53% | 1017 hPa | 0 mm | 0.45 m/s, 0° | - | - |
| 1788515476 | 26.11° C | 55% | 1017.3 hPa | 0 mm | 0.89 m/s, 0° | - | - |
| 1788514876 | 26.11° C | 54% | 1017.5 hPa | 0 mm | 0.45 m/s, 0° | - | - |
| 1788513676 | 26.11° C | 53% | 1017.7 hPa | 0 mm | 0.89 m/s, 0° | - | - |
| 1788513076 | 25° C | 57% | 1017.9 hPa | 0 mm | 0.45 m/s, 0° | - | - |
| 1788512476 | 24.44° C | 60% | 1018.1 hPa | 0 mm | 0.45 m/s, 0° | - | - |
| 1788511876 | 23.89° C | 60% | 1018.1 hPa | 0 mm | 0.45 m/s, 0° | - | - |
| 1788511276 | 24.44° C | 60% | 1018.3 hPa | 0 mm | 0.45 m/s, 0° | - | - |
| 1788510676 | 23.33° C | 62% | 1018.4 hPa | 0 mm | 0.45 m/s, 0° | - | - |
| 1788510076 | 23.33° C | 62% | 1018.5 hPa | 0 mm | 0.45 m/s, 0° | - | - |
| 1788509476 | 23.33° C | 62% | 1018.6 hPa | 0 mm | 0.45 m/s, 0° | - | - |
| 1788507676 | 21.67° C | 65% | 1018.6 hPa | 0 mm | 0.45 m/s, 0° | - | - |
| 1788507076 | 20.56° C | 69% | 1018.7 hPa | 0 mm | 0.45 m/s, 0° | - | - |
| 1788506476 | 20° C | 70% | 1018.7 hPa | 0 mm | 0.45 m/s, 0° | - | - |
| 1788505876 | 20° C | 70% | 1018.6 hPa | 0 mm | 0.45 m/s, 0° | - | - |
| 1788505276 | 20° C | 71% | 1018.7 hPa | 0 mm | 0.45 m/s, 0° | - | - |
| 1788504676 | 20° C | 71% | 1018.8 hPa | 0 mm | 0 m/s | - | - |
| 1788504076 | 19.44° C | 73% | 1018.7 hPa | 0 mm | 0.45 m/s, 0° | - | - |
| 1788503476 | 19.44° C | 72% | 1018.7 hPa | 0 mm | 0.45 m/s, 0° | - | - |
| 1788502876 | 20° C | 71% | 1018.6 hPa | 0 mm | 0.45 m/s, 0° | - | - |
| 1788502276 | 20° C | 68% | 1018.7 hPa | 0 mm | 0.45 m/s, 0° | - | - |
| 1788501676 | 20.56° C | 66% | 1018.6 hPa | 0 mm | 0.45 m/s, 0° | - | - |
| 1788501076 | 20° C | 68% | 1018.7 hPa | 0 mm | 0 m/s | - | - |
| 1788500476 | 19.44° C | 70% | 1018.7 hPa | 0 mm | 0.45 m/s, 0° | - | - |
* Rain latest hour (hover to see other rain measurements)
** Current wind speed in m/s (hover to see current wind gust speed)